Time;durP1;ratioP1;P1;durP2;ratioP2;P2;SDS_P1;SDS_P2;PMS_P1;PMS_P2;Temp;Humidity;BMP_temperature;BMP_pressure;BME280_temperature;BME280_humidity;BME280_pressure;Samples;Min_cycle;Max_cycle;Signal;HPM_P1;HPM_P2
2023/04/24 00:01:39;;;;;;;;;1.00;1.00;;;;;13.58;74.54;100414.00;5079820;27;45562;-79
2023/04/24 00:04:06;;;;;;;;;0.33;0.33;;;;;13.53;75.00;100412.19;5078561;28;45654;-87
2023/04/24 00:06:36;;;;;;;;;1.00;1.00;;;;;13.53;74.84;100403.44;5112082;27;46302;-75
2023/04/24 00:09:05;;;;;;;;;1.67;1.00;;;;;13.46;74.32;100394.56;5078930;27;45587;-82
2023/04/24 00:11:31;;;;;;;;;1.33;0.00;;;;;13.50;74.55;100406.00;5078556;27;45494;-86
2023/04/24 00:13:57;;;;;;;;;1.00;1.00;;;;;13.39;74.63;100394.44;5079087;28;45472;-75
2023/04/24 00:16:23;;;;;;;;;1.00;1.00;;;;;13.35;74.68;100393.56;5068351;28;45608;-75
2023/04/24 00:18:48;;;;;;;;;1.00;1.00;;;;;13.19;74.16;100371.41;5072643;28;45340;-87
2023/04/24 00:21:17;;;;;;;;;1.67;1.00;;;;;13.27;74.81;100384.59;5060536;28;45417;-86
2023/04/24 00:23:43;;;;;;;;;1.00;1.00;;;;;13.28;74.87;100400.38;5072108;28;45606;-75
2023/04/24 00:26:09;;;;;;;;;1.00;1.00;;;;;13.24;74.39;100397.69;5074326;27;45557;-81
2023/04/24 00:28:34;;;;;;;;;1.67;1.67;;;;;13.10;74.89;100381.72;5072305;28;45475;-76
2023/04/24 00:31:00;;;;;;;;;2.00;1.00;;;;;13.13;74.19;100394.91;5078463;27;45489;-75
2023/04/24 00:33:26;;;;;;;;;1.00;1.00;;;;;13.00;74.88;100383.28;5078897;27;45519;-76
2023/04/24 00:35:51;;;;;;;;;1.00;1.00;;;;;13.07;74.93;100397.38;5077285;28;47715;-76
2023/04/24 00:38:18;;;;;;;;;3.00;1.00;;;;;13.12;75.02;100408.84;5078270;27;45567;-82
2023/04/24 00:40:43;;;;;;;;;1.00;1.00;;;;;12.98;75.00;100389.38;5077536;27;45451;-78
2023/04/24 00:43:09;;;;;;;;;1.00;1.00;;;;;12.92;75.19;100385.78;5077891;27;45653;-75
2023/04/24 00:45:35;;;;;;;;;1.67;1.00;;;;;12.96;75.25;100393.72;5073568;28;45600;-85
2023/04/24 00:48:01;;;;;;;;;1.33;1.00;;;;;12.85;75.22;100388.25;5070787;28;45425;-86
2023/04/24 00:50:28;;;;;;;;;1.00;1.00;;;;;12.83;75.00;100387.34;5077631;27;45702;-79
2023/04/24 00:52:53;;;;;;;;;2.00;1.00;;;;;12.82;75.08;100398.72;5078503;27;45821;-78
2023/04/24 00:55:19;;;;;;;;;1.00;1.00;;;;;12.86;75.14;100416.25;5077876;28;45548;-75
2023/04/24 00:57:45;;;;;;;;;1.00;1.00;;;;;12.71;75.25;100399.41;5076870;28;45488;-76
2023/04/24 01:00:11;;;;;;;;;2.67;1.00;;;;;12.61;75.08;100378.22;5077772;28;45439;-76
2023/04/24 01:02:44;;;;;;;;;1.00;1.00;;;;;12.78;75.03;100413.50;5076398;28;45536;-76
2023/04/24 01:05:12;;;;;;;;;1.67;1.00;;;;;12.59;74.83;100380.78;5110070;27;46258;-75
2023/04/24 01:07:39;;;;;;;;;2.00;1.00;;;;;12.61;74.83;100378.22;5077775;27;45373;-79
2023/04/24 01:10:05;;;;;;;;;0.67;0.67;;;;;12.72;74.73;100393.28;5077736;27;45304;-82
2023/04/24 01:12:30;;;;;;;;;1.00;1.00;;;;;12.73;75.62;100402.03;5078447;28;45606;-75
2023/04/24 01:14:56;;;;;;;;;1.75;1.75;;;;;12.70;75.48;100404.59;5076383;28;45483;-75
2023/04/24 01:17:22;;;;;;;;;2.00;1.00;;;;;12.79;75.43;100402.13;5077875;28;45388;-83
2023/04/24 01:19:48;;;;;;;;;0.00;0.00;;;;;12.78;74.90;100383.78;5062088;28;45491;-79
2023/04/24 01:22:14;;;;;;;;;1.00;1.00;;;;;12.96;74.62;100397.22;5078052;28;45745;-87
2023/04/24 01:24:41;;;;;;;;;1.00;1.00;;;;;13.10;74.28;100403.56;5076768;28;46733;-86
2023/04/24 01:27:08;;;;;;;;;1.00;1.00;;;;;13.16;74.05;100396.69;5076082;28;45475;-87
2023/04/24 01:29:34;;;;;;;;;1.67;1.00;;;;;13.09;74.14;100386.09;5078022;27;45403;-86
2023/04/24 01:32:00;;;;;;;;;1.00;1.00;;;;;13.11;74.27;100376.50;5076942;27;45231;-75
2023/04/24 01:34:26;;;;;;;;;1.00;1.00;;;;;13.18;74.22;100387.97;5078176;28;45384;-86
2023/04/24 01:36:52;;;;;;;;;1.33;1.00;;;;;13.20;74.01;100388.00;5075880;28;45326;-79
2023/04/24 01:39:20;;;;;;;;;1.00;1.00;;;;;13.17;74.08;100374.81;5057495;28;45588;-80
2023/04/24 01:41:46;;;;;;;;;0.00;0.00;;;;;13.34;73.94;100404.88;5080889;27;45360;-75
2023/04/24 01:44:12;;;;;;;;;1.00;1.00;;;;;13.29;74.63;100396.94;5057802;28;46069;-75
2023/04/24 01:46:38;;;;;;;;;2.00;1.00;;;;;13.28;74.32;100389.00;5075280;28;45960;-75
2023/04/24 01:49:03;;;;;;;;;1.00;1.00;;;;;13.28;74.47;100383.75;5077700;27;45682;-76
2023/04/24 01:51:29;;;;;;;;;1.67;1.67;;;;;13.24;74.06;100367.09;5078424;27;45773;-76
2023/04/24 01:53:55;;;;;;;;;1.00;0.67;;;;;13.27;73.49;100372.41;5067592;28;47756;-81
2023/04/24 01:56:22;;;;;;;;;1.00;1.00;;;;;13.40;73.43;100397.09;5076801;28;45495;-82
2023/04/24 01:58:50;;;;;;;;;1.67;1.00;;;;;13.39;73.09;100395.34;5076022;28;45491;-76
2023/04/24 02:01:24;;;;;;;;;0.67;0.67;;;;;13.45;73.13;100403.31;5076301;28;45522;-75
2023/04/24 02:03:50;;;;;;;;;1.00;1.00;;;;;13.33;73.32;100385.66;5077205;28;45442;-75
2023/04/24 02:06:15;;;;;;;;;0.00;0.00;;;;;13.39;73.37;100386.59;5072550;28;45959;-75
2023/04/24 02:08:41;;;;;;;;;1.00;1.00;;;;;13.40;72.89;100389.25;5066202;28;45304;-86
2023/04/24 02:11:09;;;;;;;;;0.67;0.67;;;;;13.01;72.39;100318.63;5077152;27;45224;-87
2023/04/24 02:13:34;;;;;;;;;1.00;0.67;;;;;13.41;73.10;100384.88;5076593;28;46711;-87
2023/04/24 02:16:00;;;;;;;;;1.00;1.00;;;;;13.34;73.15;100368.16;5072862;28;45607;-76
2023/04/24 02:18:25;;;;;;;;;0.33;0.33;;;;;13.47;73.12;100398.09;5067842;28;45321;-87
2023/04/24 02:20:51;;;;;;;;;0.00;0.00;;;;;13.35;73.08;100375.19;5076465;28;45796;-75
2023/04/24 02:23:16;;;;;;;;;1.00;1.00;;;;;13.50;72.89;100398.16;5074825;28;47959;-76
2023/04/24 02:25:42;;;;;;;;;0.00;0.00;;;;;13.42;72.47;100382.28;5075796;28;45750;-83
2023/04/24 02:28:07;;;;;;;;;1.00;0.33;;;;;12.98;72.34;100311.59;5069034;28;45523;-87
2023/04/24 02:30:33;;;;;;;;;2.00;1.00;;;;;13.33;72.48;100392.66;5071519;28;45648;-76
2023/04/24 02:32:58;;;;;;;;;0.00;0.00;;;;;13.00;72.29;100346.59;5076875;28;46110;-76
2023/04/24 02:35:24;;;;;;;;;1.00;1.00;;;;;13.04;72.75;100371.13;5070121;28;45472;-75
2023/04/24 02:37:49;;;;;;;;;0.33;0.33;;;;;12.83;72.35;100333.22;5059614;28;45370;-88
2023/04/24 02:40:15;;;;;;;;;1.33;1.00;;;;;12.94;72.55;100375.31;5075707;28;45590;-75
2023/04/24 02:42:40;;;;;;;;;1.67;1.00;;;;;12.96;72.83;100375.38;5076432;28;46294;-75
2023/04/24 02:45:06;;;;;;;;;1.00;1.00;;;;;12.97;72.90;100392.84;5108870;27;45498;-75
2023/04/24 02:47:32;;;;;;;;;1.00;1.00;;;;;12.87;72.66;100387.47;5077427;28;45341;-76
2023/04/24 02:49:57;;;;;;;;;0.33;0.33;;;;;12.89;73.03;100406.72;5076934;28;45379;-76
2023/04/24 02:52:23;;;;;;;;;2.00;1.00;;;;;12.92;72.63;100409.38;5075167;28;45488;-78
2023/04/24 02:54:49;;;;;;;;;1.00;0.00;;;;;12.96;72.88;100414.69;5055674;28;45705;-87
2023/04/24 02:57:14;;;;;;;;;1.00;1.00;;;;;12.85;72.06;100399.66;5062678;28;45365;-76
2023/04/24 02:59:40;;;;;;;;;0.00;0.00;;;;;12.91;72.41;100404.09;5077179;28;45640;-76
2023/04/24 03:02:06;;;;;;;;;1.00;0.00;;;;;12.95;72.31;100421.66;5075884;27;45540;-76
2023/04/24 03:04:31;;;;;;;;;1.00;1.00;;;;;12.86;72.13;100393.53;5072003;28;45438;-86
2023/04/24 03:06:57;;;;;;;;;0.67;0.33;;;;;12.93;71.96;100416.41;5071775;28;45492;-78
2023/04/24 03:09:23;;;;;;;;;1.00;1.00;;;;;12.81;71.76;100392.59;5059307;28;45505;-76
2023/04/24 03:11:49;;;;;;;;;0.00;0.00;;;;;12.89;72.46;100406.72;5076542;28;46502;-76
2023/04/24 03:14:15;;;;;;;;;0.00;0.00;;;;;12.97;71.89;100421.69;5076114;28;45509;-86
2023/04/24 03:16:40;;;;;;;;;1.67;1.00;;;;;12.76;72.51;100389.00;5094083;27;45464;-76
2023/04/24 03:19:06;;;;;;;;;0.33;0.33;;;;;13.01;72.42;100436.63;5073476;28;45472;-76
2023/04/24 03:21:32;;;;;;;;;0.67;0.67;;;;;12.99;72.32;100419.97;5076292;28;45538;-86
2023/04/24 03:23:57;;;;;;;;;1.00;1.00;;;;;12.97;71.56;100408.56;5076054;28;45525;-88
2023/04/24 03:26:23;;;;;;;;;1.33;0.00;;;;;13.08;71.03;100412.28;5074867;28;45476;-87
2023/04/24 03:28:48;;;;;;;;;1.00;0.00;;;;;13.04;70.97;100399.97;5074828;28;45615;-87
2023/04/24 03:31:15;;;;;;;;;1.00;1.00;;;;;13.03;71.14;100392.94;5076043;28;45571;-86
2023/04/24 03:33:40;;;;;;;;;0.67;0.67;;;;;13.15;71.62;100416.78;5074822;28;45259;-75
2023/04/24 03:36:06;;;;;;;;;0.00;0.00;;;;;12.97;70.17;100367.53;5075045;28;45529;-75
2023/04/24 03:38:32;;;;;;;;;1.33;1.00;;;;;13.26;69.72;100412.59;5059114;28;45460;-75
2023/04/24 03:40:57;;;;;;;;;0.00;0.00;;;;;13.14;70.36;100391.41;5073672;28;45901;-86
2023/04/24 03:43:23;;;;;;;;;1.00;0.00;;;;;13.25;69.65;100410.84;5076016;28;46119;-75
2023/04/24 03:45:49;;;;;;;;;1.00;1.00;;;;;13.14;69.24;100401.91;5076003;28;45373;-75
2023/04/24 03:48:14;;;;;;;;;1.00;0.00;;;;;13.07;69.35;100397.38;5072223;28;45402;-76
2023/04/24 03:50:40;;;;;;;;;0.67;0.33;;;;;13.17;69.28;100419.41;5075831;28;46598;-75
2023/04/24 03:53:05;;;;;;;;;1.00;0.00;;;;;13.06;69.51;100396.50;5075353;27;45309;-75
2023/04/24 03:55:31;;;;;;;;;2.00;0.00;;;;;13.10;69.43;100384.34;5076767;28;45437;-75
2023/04/24 03:57:56;;;;;;;;;1.67;0.00;;;;;13.24;69.36;100416.94;5077802;28;45629;-76
2023/04/24 04:00:22;;;;;;;;;3.00;1.00;;;;;13.17;69.58;100399.34;5078850;28;46458;-76
2023/04/24 04:02:47;;;;;;;;;1.00;0.00;;;;;13.16;69.83;100392.31;5078555;27;45388;-75
2023/04/24 04:05:13;;;;;;;;;0.33;0.00;;;;;13.19;69.89;100395.00;5079373;28;45322;-77
2023/04/24 04:07:38;;;;;;;;;0.00;0.00;;;;;13.12;69.85;100382.63;5079016;28;45615;-81
2023/04/24 04:10:06;;;;;;;;;1.00;1.00;;;;;13.13;69.68;100385.28;5061643;28;46267;-76
2023/04/24 04:12:32;;;;;;;;;2.00;0.00;;;;;13.15;69.68;100385.31;5078812;28;45448;-76
2023/04/24 04:14:57;;;;;;;;;0.33;0.33;;;;;13.18;69.71;100390.59;5079008;27;45310;-78
2023/04/24 04:17:23;;;;;;;;;1.00;1.00;;;;;13.33;69.70;100414.50;5077668;28;45255;-77
2023/04/24 04:19:48;;;;;;;;;2.00;1.00;;;;;13.17;69.79;100383.59;5078332;28;45263;-81
2023/04/24 04:22:14;;;;;;;;;2.00;1.00;;;;;13.22;69.52;100392.41;5078843;28;45489;-78
2023/04/24 04:24:40;;;;;;;;;2.67;1.00;;;;;13.24;70.56;100411.69;5078474;27;45471;-76
2023/04/24 04:27:06;;;;;;;;;1.00;1.00;;;;;13.26;71.17;100422.22;5062778;27;45371;-77
2023/04/24 04:29:32;;;;;;;;;1.00;1.00;;;;;12.88;70.84;100356.88;5093336;27;45494;-76
2023/04/24 04:31:58;;;;;;;;;1.00;0.00;;;;;13.13;71.13;100416.75;5069910;28;45520;-77
2023/04/24 04:34:24;;;;;;;;;0.00;0.00;;;;;13.14;71.51;100417.63;5070181;28;45524;-76
2023/04/24 04:36:50;;;;;;;;;1.67;1.00;;;;;13.16;70.92;100409.78;5077500;28;45487;-83
2023/04/24 04:39:16;;;;;;;;;1.00;1.00;;;;;13.20;70.34;100419.47;5077339;28;46416;-86
2023/04/24 04:41:42;;;;;;;;;1.00;1.00;;;;;13.29;69.99;100432.75;5076337;27;45775;-79
2023/04/24 04:44:10;;;;;;;;;1.00;1.00;;;;;13.25;69.75;100436.16;5078049;27;45358;-79
2023/04/24 04:46:37;;;;;;;;;2.00;1.00;;;;;13.11;70.75;100430.69;5067871;27;45644;-81
2023/04/24 04:49:03;;;;;;;;;1.00;1.00;;;;;13.16;70.75;100444.78;5068769;27;47116;-81
2023/04/24 04:51:29;;;;;;;;;4.00;2.00;;;;;12.96;70.69;100406.81;5110418;27;47403;-84
2023/04/24 04:53:54;;;;;;;;;2.00;1.00;;;;;13.16;70.34;100430.78;5058553;28;46109;-76
2023/04/24 04:56:20;;;;;;;;;2.00;1.00;;;;;13.17;69.96;100433.44;5065833;28;45431;-80
2023/04/24 04:58:46;;;;;;;;;4.00;2.00;;;;;13.23;70.20;100440.50;5077517;28;45646;-77
2023/04/24 05:01:11;;;;;;;;;2.00;2.00;;;;;13.25;70.54;100447.56;5075810;28;45401;-84
2023/04/24 05:03:37;;;;;;;;;1.00;1.00;;;;;13.12;70.84;100414.09;5073542;28;45403;-83
2023/04/24 05:06:03;;;;;;;;;2.00;1.00;;;;;13.42;70.87;100471.50;5078018;27;45791;-80
2023/04/24 05:08:28;;;;;;;;;1.67;1.00;;;;;13.21;71.45;100427.38;5074928;28;46054;-86
2023/04/24 05:10:55;;;;;;;;;1.33;1.00;;;;;13.38;71.43;100443.44;5078535;27;45491;-84
2023/04/24 05:13:20;;;;;;;;;4.00;3.00;;;;;13.33;71.52;100438.13;5078217;27;45313;-83
2023/04/24 05:15:46;;;;;;;;;4.00;3.50;;;;;13.46;71.95;100457.56;5085532;27;45658;-79
2023/04/24 05:18:12;;;;;;;;;3.00;3.00;;;;;13.36;71.68;100449.53;5076878;27;45388;-84
2023/04/24 05:20:37;;;;;;;;;1.00;1.00;;;;;13.39;71.74;100441.69;5077713;27;45594;-82
2023/04/24 05:23:03;;;;;;;;;5.00;5.00;;;;;13.55;72.15;100467.34;5076260;28;45511;-84
2023/04/24 05:25:29;;;;;;;;;2.00;2.00;;;;;13.40;72.01;100446.97;5076820;28;45324;-85
2023/04/24 05:27:55;;;;;;;;;2.75;2.00;;;;;13.37;71.42;100432.91;5074629;28;45489;-87
2023/04/24 05:30:21;;;;;;;;;3.00;2.00;;;;;13.50;71.11;100464.63;5077415;27;45504;-87
2023/04/24 05:32:46;;;;;;;;;1.00;1.00;;;;;13.47;71.20;100461.09;5076932;27;45816;-76
2023/04/24 05:35:12;;;;;;;;;2.00;1.00;;;;;13.59;71.11;100477.03;5078105;28;45524;-76
2023/04/24 05:37:37;;;;;;;;;1.00;1.00;;;;;13.44;71.39;100455.78;5072970;28;45455;-80
2023/04/24 05:40:05;;;;;;;;;1.00;1.00;;;;;13.56;70.68;100463.84;5076536;27;45365;-89
2023/04/24 05:42:30;;;;;;;;;0.33;0.00;;;;;13.62;70.14;100469.19;5074444;27;45523;-76
2023/04/24 05:44:56;;;;;;;;;2.00;0.00;;;;;13.66;70.52;100475.38;5072650;28;45653;-85
2023/04/24 05:47:22;;;;;;;;;1.00;0.67;;;;;13.40;70.77;100436.47;5076694;28;46488;-74
2023/04/24 05:49:48;;;;;;;;;1.33;1.00;;;;;13.72;71.12;100496.47;5076444;28;45514;-74
2023/04/24 05:52:13;;;;;;;;;7.00;6.75;;;;;13.76;71.63;100492.16;5076600;27;45324;-84
2023/04/24 05:54:39;;;;;;;;;1.00;1.00;;;;;13.78;72.28;100485.19;5092440;27;45697;-86
2023/04/24 05:57:07;;;;;;;;;3.00;3.00;;;;;13.77;71.98;100475.53;5076028;27;45393;-77
2023/04/24 05:59:38;;;;;;;;;4.33;3.00;;;;;13.65;72.05;100448.25;5074829;28;45475;-80
2023/04/24 06:02:04;;;;;;;;;3.00;2.00;;;;;13.88;71.68;100487.97;5075444;28;45457;-85
2023/04/24 06:04:30;;;;;;;;;1.00;0.00;;;;;13.63;71.53;100446.47;5072966;27;45551;-82
2023/04/24 06:06:56;;;;;;;;;1.67;1.00;;;;;13.83;71.03;100476.53;5075042;28;45417;-86
2023/04/24 06:09:22;;;;;;;;;1.00;1.00;;;;;13.75;71.33;100465.03;5080764;27;45438;-86
2023/04/24 06:11:52;;;;;;;;;0.00;0.00;;;;;13.96;71.17;100509.13;5076987;27;45937;-86
2023/04/24 06:14:18;;;;;;;;;1.00;1.00;;;;;13.82;71.58;100477.38;5075700;28;45341;-86
2023/04/24 06:16:44;;;;;;;;;6.00;5.00;;;;;13.93;71.43;100494.19;5072246;28;46683;-78
2023/04/24 06:19:10;;;;;;;;;2.67;2.00;;;;;14.09;71.48;100512.81;5075940;27;45156;-86
2023/04/24 06:21:36;;;;;;;;;1.33;1.33;;;;;14.01;71.49;100494.31;5077152;27;45527;-85
2023/04/24 06:24:04;;;;;;;;;4.25;3.75;;;;;14.06;71.31;100470.75;5076053;27;45761;-73
2023/04/24 06:26:30;;;;;;;;;7.25;6.25;;;;;13.89;71.28;100425.88;5074922;28;46280;-87
2023/04/24 06:28:58;;;;;;;;;3.75;3.00;;;;;14.58;70.59;100496.88;5074506;27;45355;-88
2023/04/24 06:31:23;;;;;;;;;2.50;2.00;;;;;14.69;70.08;100504.03;5074916;28;45574;-83
2023/04/24 06:33:49;;;;;;;;;2.67;2.00;;;;;15.00;69.86;100516.66;5076806;28;45485;-85
2023/04/24 06:36:16;;;;;;;;;2.33;2.33;;;;;15.61;68.62;100514.66;5077068;28;45374;-75
2023/04/24 06:38:42;;;;;;;;;3.00;3.00;;;;;15.86;66.52;100496.47;5077221;28;45432;-86
2023/04/24 06:41:07;;;;;;;;;2.00;1.00;;;;;15.85;65.77;100482.41;5092533;27;45510;-88
2023/04/24 06:43:33;;;;;;;;;1.00;1.00;;;;;16.01;65.34;100515.00;5073847;28;45520;-93
2023/04/24 06:46:00;;;;;;;;;1.00;0.00;;;;;16.17;65.35;100491.41;5057143;28;46485;-76
2023/04/24 06:48:26;;;;;;;;;1.00;1.00;;;;;18.27;60.85;100497.16;5068596;28;45398;-91
2023/04/24 06:50:52;;;;;;;;;1.67;1.67;;;;;20.24;54.19;100497.72;5075338;28;45483;-81
2023/04/24 06:53:18;;;;;;;;;1.00;0.67;;;;;20.66;54.08;100503.47;5075433;28;45503;-76
2023/04/24 06:55:45;;;;;;;;;0.67;0.00;;;;;22.41;49.87;100484.78;5071832;28;45712;-76
2023/04/24 06:58:11;;;;;;;;;0.00;0.00;;;;;22.07;49.59;100473.88;5076969;28;45407;-75
2023/04/24 07:00:37;;;;;;;;;2.00;2.00;;;;;24.13;46.75;100479.06;5076590;27;45458;-79
2023/04/24 07:03:05;;;;;;;;;1.00;0.33;;;;;24.31;44.41;100473.25;5075066;27;45636;-74
2023/04/24 07:05:34;;;;;;;;;1.00;1.00;;;;;23.66;44.04;100467.84;5074320;28;48009;-75
2023/04/24 07:08:00;;;;;;;;;0.00;0.00;;;;;23.23;45.62;100467.94;5074537;27;45456;-74
2023/04/24 07:10:28;;;;;;;;;1.00;0.00;;;;;24.08;43.28;100456.97;5075698;27;45621;-76
2023/04/24 07:12:54;;;;;;;;;1.00;1.00;;;;;24.36;44.26;100475.78;5062968;28;45480;-74
2023/04/24 07:15:20;;;;;;;;;1.00;1.00;;;;;23.69;44.07;100473.06;5065413;28;45582;-74
2023/04/24 07:17:46;;;;;;;;;0.00;0.00;;;;;23.23;46.09;100462.63;5071087;28;45303;-75
2023/04/24 07:20:14;;;;;;;;;0.00;0.00;;;;;23.82;45.46;100471.88;5082966;27;45567;-83
2023/04/24 07:22:40;;;;;;;;;0.00;0.00;;;;;25.68;42.45;100468.19;5059879;28;45617;-86
2023/04/24 07:25:07;;;;;;;;;0.00;0.00;;;;;26.28;40.79;100466.13;5071156;28;45420;-80
2023/04/24 07:27:34;;;;;;;;;0.00;0.00;;;;;27.55;37.11;100465.69;5067450;28;45637;-78
2023/04/24 07:29:59;;;;;;;;;1.00;1.00;;;;;29.36;33.97;100435.13;5076345;27;45358;-88
2023/04/24 07:32:25;;;;;;;;;1.00;1.00;;;;;30.07;33.88;100445.00;5079619;27;45582;-76
2023/04/24 07:34:50;;;;;;;;;1.00;0.67;;;;;29.30;34.55;100441.66;5061855;28;45483;-81
2023/04/24 07:37:16;;;;;;;;;2.33;0.00;;;;;30.53;34.48;100419.13;5078410;28;45405;-77
2023/04/24 07:39:42;;;;;;;;;0.33;0.33;;;;;31.33;32.68;100441.59;5077865;28;45452;-78
2023/04/24 07:42:07;;;;;;;;;1.00;0.00;;;;;32.89;29.12;100415.91;5098817;27;45243;-78
2023/04/24 07:44:33;;;;;;;;;0.00;0.00;;;;;34.05;26.68;100415.28;5073404;28;45676;-79
2023/04/24 07:46:59;;;;;;;;;0.00;0.00;;;;;34.96;26.47;100432.34;5077645;28;45424;-79
2023/04/24 07:49:25;;;;;;;;;0.67;0.00;;;;;35.68;26.03;100416.06;5079101;28;45405;-78
2023/04/24 07:51:50;;;;;;;;;0.00;0.00;;;;;36.00;23.71;100426.28;5077894;28;45682;-77
2023/04/24 07:54:16;;;;;;;;;0.00;0.00;;;;;36.15;24.01;100411.50;5078572;27;45282;-75
2023/04/24 07:56:43;;;;;;;;;0.00;0.00;;;;;36.57;23.37;100410.84;5063238;28;45640;-77
2023/04/24 07:59:12;;;;;;;;;0.33;0.33;;;;;37.05;22.52;100437.81;5078637;27;45507;-77
2023/04/24 08:01:38;;;;;;;;;0.00;0.00;;;;;36.96;22.00;100404.03;5077102;28;45482;-77
2023/04/24 08:04:03;;;;;;;;;0.00;0.00;;;;;37.20;22.79;100414.75;5079081;28;45897;-77
2023/04/24 08:06:30;;;;;;;;;0.00;0.00;;;;;37.46;23.10;100406.22;5078713;28;45396;-77
2023/04/24 08:08:59;;;;;;;;;0.00;0.00;;;;;38.03;21.56;100406.78;5112081;27;45478;-77
2023/04/24 08:11:25;;;;;;;;;0.00;0.00;;;;;37.92;21.81;100409.59;5079197;27;45362;-76
2023/04/24 08:13:51;;;;;;;;;0.00;0.00;;;;;37.74;21.77;100415.63;5078587;27;47430;-75
2023/04/24 08:16:17;;;;;;;;;0.00;0.00;;;;;38.03;21.24;100408.66;5078695;28;45663;-77
2023/04/24 08:18:42;;;;;;;;;0.00;0.00;;;;;37.39;23.54;100407.75;5078917;28;45435;-76
2023/04/24 08:21:08;;;;;;;;;0.00;0.00;;;;;36.59;22.38;100414.31;5077597;28;45413;-75
2023/04/24 08:23:33;;;;;;;;;0.67;0.67;;;;;36.71;22.00;100407.03;5077963;28;45640;-77
2023/04/24 08:25:59;;;;;;;;;1.33;1.33;;;;;37.56;21.17;100400.84;5060811;28;45785;-76
2023/04/24 08:28:25;;;;;;;;;0.00;0.00;;;;;37.55;21.46;100408.16;5090752;27;46358;-75
2023/04/24 08:30:54;;;;;;;;;1.00;1.00;;;;;37.63;20.67;100382.16;5075194;28;45286;-82
2023/04/24 08:33:23;;;;;;;;;0.00;0.00;;;;;37.26;20.92;100401.59;5078826;28;46042;-76
2023/04/24 08:35:49;;;;;;;;;0.00;0.00;;;;;37.73;22.55;100400.28;5077996;28;45463;-76
2023/04/24 08:38:15;;;;;;;;;1.00;1.00;;;;;38.66;19.87;100383.97;5077278;28;45659;-78
2023/04/24 08:40:41;;;;;;;;;4.00;3.00;;;;;38.55;20.09;100360.38;5076942;27;45668;-73
2023/04/24 08:43:07;;;;;;;;;0.33;0.33;;;;;38.68;20.50;100368.31;5077107;28;46058;-80
2023/04/24 08:45:33;;;;;;;;;0.00;0.00;;;;;38.47;19.73;100376.56;5073038;27;45500;-81
2023/04/24 08:48:00;;;;;;;;;0.00;0.00;;;;;38.00;20.33;100397.03;5065679;28;45897;-74
2023/04/24 08:50:25;;;;;;;;;0.00;0.00;;;;;38.07;20.76;100382.88;5077311;28;45637;-74
2023/04/24 08:52:53;;;;;;;;;0.00;0.00;;;;;38.70;19.92;100391.75;5076883;27;46578;-77
2023/04/24 08:55:20;;;;;;;;;0.00;0.00;;;;;38.33;20.45;100380.53;5062878;28;45495;-77
2023/04/24 08:57:51;;;;;;;;;0.67;0.33;;;;;38.18;21.48;100385.47;5068821;28;45521;-73
2023/04/24 09:00:17;;;;;;;;;0.67;0.67;;;;;38.59;20.77;100380.94;5073842;28;45589;-73
2023/04/24 09:02:43;;;;;;;;;0.00;0.00;;;;;38.33;19.58;100386.84;5075916;28;47969;-79
2023/04/24 09:05:11;;;;;;;;;0.00;0.00;;;;;38.06;20.44;100390.16;5080211;27;45853;-82
2023/04/24 09:07:39;;;;;;;;;1.00;1.00;;;;;37.10;20.57;100393.84;5068296;28;45542;-83
2023/04/24 09:10:07;;;;;;;;;1.00;1.00;;;;;35.59;22.19;100386.88;5061078;28;45356;-84
2023/04/24 09:12:34;;;;;;;;;0.00;0.00;;;;;34.72;22.79;100391.59;5068843;28;45532;-87
2023/04/24 09:15:03;;;;;;;;;0.00;0.00;;;;;34.08;23.70;100392.50;5072601;28;45504;-88
2023/04/24 09:17:29;;;;;;;;;0.00;0.00;;;;;33.65;24.61;100385.56;5074307;28;45610;-73
2023/04/24 09:19:55;;;;;;;;;0.00;0.00;;;;;33.87;24.39;100375.94;5071340;28;45549;-73
2023/04/24 09:22:21;;;;;;;;;0.00;0.00;;;;;33.67;25.27;100370.06;5067620;28;46219;-73
2023/04/24 09:24:48;;;;;;;;;0.00;0.00;;;;;33.51;24.45;100387.47;5076914;27;45369;-73
2023/04/24 09:27:16;;;;;;;;;0.00;0.00;;;;;32.82;24.92;100374.84;5075370;28;45275;-75
2023/04/24 09:30:02;;;;;;;;;1.00;0.33;;;;;31.99;26.53;100396.28;5073872;28;45889;-75
2023/04/24 09:32:29;;;;;;;;;2.00;2.00;;;;;31.75;27.01;100387.00;5076245;27;46506;-75
2023/04/24 09:35:08;;;;;;;;;0.00;0.00;;;;;32.00;27.62;100398.06;5077188;27;45570;-74
2023/04/24 09:37:38;;;;;;;;;0.00;0.00;;;;;31.98;26.82;100378.34;5062269;28;45359;-77
2023/04/24 09:40:17;;;;;;;;;0.00;0.00;;;;;31.58;26.83;100405.09;5049548;28;45494;-74
2023/04/24 09:42:54;;;;;;;;;0.00;0.00;;;;;30.73;28.27;100415.31;5071613;28;45636;-74
2023/04/24 09:45:20;;;;;;;;;1.67;0.67;;;;;30.38;28.19;100411.03;5074921;28;45424;-77
2023/04/24 09:47:46;;;;;;;;;0.00;0.00;;;;;30.16;28.79;100387.91;5067240;28;45442;-81
2023/04/24 09:50:16;;;;;;;;;0.00;0.00;;;;;30.26;29.05;100415.22;5083756;27;45332;-73
2023/04/24 09:52:57;;;;;;;;;1.00;0.67;;;;;29.98;29.53;100418.53;5073441;27;47608;-76
2023/04/24 09:55:23;;;;;;;;;0.00;0.00;;;;;29.94;29.18;100416.03;5075651;28;45413;-78
2023/04/24 09:57:56;;;;;;;;;1.67;1.00;;;;;29.67;29.77;100412.03;5073561;28;45472;-79
2023/04/24 10:00:23;;;;;;;;;1.00;0.67;;;;;29.53;28.81;100412.75;5076113;28;45568;-86
2023/04/24 10:03:06;;;;;;;;;1.00;1.00;;;;;29.27;30.22;100400.63;5076275;27;46814;-74
2023/04/24 10:05:37;;;;;;;;;0.00;0.00;;;;;28.99;30.51;100418.09;5077472;28;45309;-79
2023/04/24 10:08:04;;;;;;;;;1.33;1.33;;;;;29.12;30.81;100421.06;5076450;28;45485;-80
2023/04/24 10:10:38;;;;;;;;;1.67;1.00;;;;;29.16;30.42;100422.66;5076602;27;45581;-77
2023/04/24 10:13:04;;;;;;;;;2.00;1.00;;;;;28.98;31.33;100410.09;5075886;27;46401;-75
2023/04/24 10:15:30;;;;;;;;;0.33;0.33;;;;;28.91;31.36;100407.72;5093165;27;45567;-82
2023/04/24 10:17:58;;;;;;;;;0.00;0.00;;;;;28.72;31.52;100396.09;5076474;27;45293;-73
2023/04/24 10:20:31;;;;;;;;;2.67;1.00;;;;;28.58;31.75;100406.63;5074788;28;45777;-77
2023/04/24 10:22:59;;;;;;;;;1.00;1.00;;;;;28.54;32.24;100405.91;5075441;28;46487;-74
2023/04/24 10:25:27;;;;;;;;;1.33;1.00;;;;;28.64;32.38;100406.34;5076208;28;45373;-81
2023/04/24 10:27:57;;;;;;;;;2.33;2.33;;;;;28.80;31.49;100398.41;5075708;28;45891;-81
2023/04/24 10:30:23;;;;;;;;;1.00;1.00;;;;;28.95;30.93;100413.81;5074838;28;45679;-72
2023/04/24 10:32:48;;;;;;;;;1.00;1.00;;;;;28.64;31.43;100391.06;5074212;28;46185;-81
2023/04/24 10:35:15;;;;;;;;;1.00;1.00;;;;;28.52;31.96;100424.78;5075373;28;45457;-76
2023/04/24 10:37:50;;;;;;;;;0.00;0.00;;;;;28.21;32.07;100397.53;5089973;27;45531;-74
2023/04/24 10:40:19;;;;;;;;;1.00;0.33;;;;;27.95;32.70;100424.66;5073768;28;45378;-73
2023/04/24 10:42:48;;;;;;;;;1.00;0.00;;;;;27.77;32.91;100425.41;5073723;28;46970;-73
2023/04/24 10:45:21;;;;;;;;;1.00;1.00;;;;;27.61;33.40;100419.81;5075894;27;45465;-73
2023/04/24 10:48:03;;;;;;;;;2.00;1.00;;;;;27.54;33.87;100427.28;5071658;27;45543;-73
2023/04/24 10:50:41;;;;;;;;;1.00;1.00;;;;;27.45;33.66;100408.00;5065846;28;45381;-73
2023/04/24 10:53:12;;;;;;;;;2.00;1.00;;;;;27.25;34.35;100416.88;5076091;28;45456;-73
2023/04/24 10:55:45;;;;;;;;;3.33;3.00;;;;;27.14;34.45;100407.44;5075721;28;45562;-72
2023/04/24 10:58:11;;;;;;;;;0.00;0.00;;;;;26.94;34.00;100400.22;5076057;28;45363;-73
2023/04/24 11:00:39;;;;;;;;;2.00;1.00;;;;;26.72;35.08;100391.25;5075844;28;45462;-72
2023/04/24 11:03:07;;;;;;;;;2.00;2.00;;;;;26.68;35.75;100413.75;5075398;28;46159;-73
2023/04/24 11:06:03;;;;;;;;;2.00;1.00;;;;;26.52;36.04;100414.34;5077588;27;45554;-73
2023/04/24 11:08:37;;;;;;;;;2.00;1.67;;;;;26.42;35.92;100406.69;5079095;27;45351;-74
2023/04/24 11:11:15;;;;;;;;;1.00;1.00;;;;;26.14;36.27;100356.84;5079296;28;45429;-73
2023/04/24 11:14:06;;;;;;;;;1.33;1.33;;;;;26.64;36.07;100406.78;5074577;27;45430;-72
2023/04/24 11:16:57;;;;;;;;;1.00;1.00;;;;;26.84;35.83;100400.63;5066574;28;45597;-73
2023/04/24 11:19:25;;;;;;;;;2.33;2.33;;;;;26.93;35.62;100397.59;5079805;28;45372;-73
2023/04/24 11:22:13;;;;;;;;;1.00;1.00;;;;;26.95;35.95;100399.25;5080130;28;45808;-73
2023/04/24 11:24:40;;;;;;;;;1.00;0.33;;;;;26.81;35.39;100395.41;5078766;28;46087;-73